sensor_id;sensor_type;location;lat;lon;timestamp;pressure;altitude;pressure_sealevel;temperature
70668;BMP280;58242;51.250;-1.118;2023-12-07T00:01:09;100086.66;;;12.33
70668;BMP280;58242;51.250;-1.118;2023-12-07T00:03:34;100088.34;;;12.38
70668;BMP280;58242;51.250;-1.118;2023-12-07T00:05:59;100074.63;;;12.39
70668;BMP280;58242;51.250;-1.118;2023-12-07T00:08:25;100069.69;;;12.41
70668;BMP280;58242;51.250;-1.118;2023-12-07T00:10:50;100069.00;;;12.44
70668;BMP280;58242;51.250;-1.118;2023-12-07T00:13:16;100059.53;;;12.47
70668;BMP280;58242;51.250;-1.118;2023-12-07T00:15:42;100069.59;;;12.49
70668;BMP280;58242;51.250;-1.118;2023-12-07T00:18:08;100079.63;;;12.52
70668;BMP280;58242;51.250;-1.118;2023-12-07T00:20:33;100068.22;;;12.55
70668;BMP280;58242;51.250;-1.118;2023-12-07T00:22:58;100058.75;;;12.58
70668;BMP280;58242;51.250;-1.118;2023-12-07T00:25:24;100050.06;;;12.61
70668;BMP280;58242;51.250;-1.118;2023-12-07T00:27:49;100050.84;;;12.61
70668;BMP280;58242;51.250;-1.118;2023-12-07T00:30:14;100045.81;;;12.60
70668;BMP280;58242;51.250;-1.118;2023-12-07T00:32:40;100034.28;;;12.59
70668;BMP280;58242;51.250;-1.118;2023-12-07T00:35:11;100026.91;;;12.56
70668;BMP280;58242;51.250;-1.118;2023-12-07T00:37:36;100010.72;;;12.53
70668;BMP280;58242;51.250;-1.118;2023-12-07T00:40:02;100018.31;;;12.51
70668;BMP280;58242;51.250;-1.118;2023-12-07T00:42:28;100022.91;;;12.50
70668;BMP280;58242;51.250;-1.118;2023-12-07T00:44:54;100019.75;;;12.48
70668;BMP280;58242;51.250;-1.118;2023-12-07T00:47:20;100018.19;;;12.48
70668;BMP280;58242;51.250;-1.118;2023-12-07T00:49:46;100015.06;;;12.46
70668;BMP280;58242;51.250;-1.118;2023-12-07T00:52:11;100022.69;;;12.44
70668;BMP280;58242;51.250;-1.118;2023-12-07T00:54:37;100027.25;;;12.43
70668;BMP280;58242;51.250;-1.118;2023-12-07T00:57:03;100025.69;;;12.42
70668;BMP280;58242;51.250;-1.118;2023-12-07T00:59:28;100020.31;;;12.42
70668;BMP280;58242;51.250;-1.118;2023-12-07T01:02:02;100027.59;;;12.42
70668;BMP280;58242;51.250;-1.118;2023-12-07T01:04:28;100022.13;;;12.38
70668;BMP280;58242;51.250;-1.118;2023-12-07T01:06:54;100021.66;;;12.36
70668;BMP280;58242;51.250;-1.118;2023-12-07T01:09:19;100025.47;;;12.35
70668;BMP280;58242;51.250;-1.118;2023-12-07T01:11:45;100011.59;;;12.33
70668;BMP280;58242;51.250;-1.118;2023-12-07T01:14:10;100012.72;;;12.32
70668;BMP280;58242;51.250;-1.118;2023-12-07T01:16:36;100012.72;;;12.32
70668;BMP280;58242;51.250;-1.118;2023-12-07T01:19:02;100010.03;;;12.32
70668;BMP280;58242;51.250;-1.118;2023-12-07T01:21:27;99996.19;;;12.31
70668;BMP280;58242;51.250;-1.118;2023-12-07T01:23:53;99983.59;;;12.31
70668;BMP280;58242;51.250;-1.118;2023-12-07T01:26:18;99968.94;;;12.29
70668;BMP280;58242;51.250;-1.118;2023-12-07T01:28:43;99967.41;;;12.28
70668;BMP280;58242;51.250;-1.118;2023-12-07T01:31:08;99964.72;;;12.28
70668;BMP280;58242;51.250;-1.118;2023-12-07T01:33:34;99960.03;;;12.25
70668;BMP280;58242;51.250;-1.118;2023-12-07T01:35:59;99960.03;;;12.25
70668;BMP280;58242;51.250;-1.118;2023-12-07T01:38:24;99962.25;;;12.23
70668;BMP280;58242;51.250;-1.118;2023-12-07T01:40:50;99957.69;;;12.23
70668;BMP280;58242;51.250;-1.118;2023-12-07T01:43:15;99952.31;;;12.23
70668;BMP280;58242;51.250;-1.118;2023-12-07T01:45:40;99942.03;;;12.25
70668;BMP280;58242;51.250;-1.118;2023-12-07T01:48:06;99940.91;;;12.26
70668;BMP280;58242;51.250;-1.118;2023-12-07T01:50:32;99932.56;;;12.28
70668;BMP280;58242;51.250;-1.118;2023-12-07T01:53:02;99933.44;;;12.31
70668;BMP280;58242;51.250;-1.118;2023-12-07T01:55:28;99915.47;;;12.32
70668;BMP280;58242;51.250;-1.118;2023-12-07T01:57:55;99920.84;;;12.32
70668;BMP280;58242;51.250;-1.118;2023-12-07T02:00:20;99916.22;;;12.32
70668;BMP280;58242;51.250;-1.118;2023-12-07T02:02:47;99912.44;;;12.33
70668;BMP280;58242;51.250;-1.118;2023-12-07T02:05:13;99913.69;;;12.36
70668;BMP280;58242;51.250;-1.118;2023-12-07T02:07:40;99914.09;;;12.38
70668;BMP280;58242;51.250;-1.118;2023-12-07T02:10:06;99913.00;;;12.39
70668;BMP280;58242;51.250;-1.118;2023-12-07T02:12:32;99919.13;;;12.39
70668;BMP280;58242;51.250;-1.118;2023-12-07T02:14:58;99920.34;;;12.42
70668;BMP280;58242;51.250;-1.118;2023-12-07T02:17:52;99921.56;;;12.44
70668;BMP280;58242;51.250;-1.118;2023-12-07T02:22:55;99919.34;;;12.46
70668;BMP280;58242;51.250;-1.118;2023-12-07T02:25:26;99914.41;;;12.48
70668;BMP280;58242;51.250;-1.118;2023-12-07T02:27:54;99909.84;;;12.48
70668;BMP280;58242;51.250;-1.118;2023-12-07T02:30:19;99907.94;;;12.49
70668;BMP280;58242;51.250;-1.118;2023-12-07T02:32:45;99907.94;;;12.49
70668;BMP280;58242;51.250;-1.118;2023-12-07T02:35:12;99901.47;;;12.50
70668;BMP280;58242;51.250;-1.118;2023-12-07T02:40:11;99908.72;;;12.49
70668;BMP280;58242;51.250;-1.118;2023-12-07T02:42:40;99913.28;;;12.49
70668;BMP280;58242;51.250;-1.118;2023-12-07T02:45:07;99910.19;;;12.47
70668;BMP280;58242;51.250;-1.118;2023-12-07T02:47:33;99907.84;;;12.46
70668;BMP280;58242;51.250;-1.118;2023-12-07T02:49:59;99905.47;;;12.44
70668;BMP280;58242;51.250;-1.118;2023-12-07T02:52:25;99907.41;;;12.44
70668;BMP280;58242;51.250;-1.118;2023-12-07T02:54:50;99896.22;;;12.42
70668;BMP280;58242;51.250;-1.118;2023-12-07T02:57:15;99898.13;;;12.41
70668;BMP280;58242;51.250;-1.118;2023-12-07T02:59:41;99904.59;;;12.40
70668;BMP280;58242;51.250;-1.118;2023-12-07T03:02:06;99908.41;;;12.39
70668;BMP280;58242;51.250;-1.118;2023-12-07T03:04:32;99896.91;;;12.39
70668;BMP280;58242;51.250;-1.118;2023-12-07T03:06:58;99875.78;;;12.37
70668;BMP280;58242;51.250;-1.118;2023-12-07T03:09:23;99865.44;;;12.36
70668;BMP280;58242;51.250;-1.118;2023-12-07T03:11:49;99862.28;;;12.34
70668;BMP280;58242;51.250;-1.118;2023-12-07T03:14:14;99872.59;;;12.32
70668;BMP280;58242;51.250;-1.118;2023-12-07T03:16:40;99875.59;;;12.31
70668;BMP280;58242;51.250;-1.118;2023-12-07T03:19:05;99873.59;;;12.28
70668;BMP280;58242;51.250;-1.118;2023-12-07T03:21:30;99874.38;;;12.28
70668;BMP280;58242;51.250;-1.118;2023-12-07T03:23:56;99865.19;;;12.29
70668;BMP280;58242;51.250;-1.118;2023-12-07T03:26:21;99853.69;;;12.29
70668;BMP280;58242;51.250;-1.118;2023-12-07T03:28:46;99856.84;;;12.31
70668;BMP280;58242;51.250;-1.118;2023-12-07T03:31:12;99847.69;;;12.31
70668;BMP280;58242;51.250;-1.118;2023-12-07T03:33:37;99845.44;;;12.33
70668;BMP280;58242;51.250;-1.118;2023-12-07T03:36:04;99842.41;;;12.35
70668;BMP280;58242;51.250;-1.118;2023-12-07T03:38:30;99836.69;;;12.36
70668;BMP280;58242;51.250;-1.118;2023-12-07T03:40:55;99834.03;;;12.36
70668;BMP280;58242;51.250;-1.118;2023-12-07T03:43:21;99827.53;;;12.37
70668;BMP280;58242;51.250;-1.118;2023-12-07T03:45:46;99827.53;;;12.37
70668;BMP280;58242;51.250;-1.118;2023-12-07T03:48:12;99822.88;;;12.34
70668;BMP280;58242;51.250;-1.118;2023-12-07T03:50:37;99824.44;;;12.35
70668;BMP280;58242;51.250;-1.118;2023-12-07T03:53:03;99826.34;;;12.35
70668;BMP280;58242;51.250;-1.118;2023-12-07T03:55:28;99820.97;;;12.35
70668;BMP280;58242;51.250;-1.118;2023-12-07T03:57:53;99816.41;;;12.35
70668;BMP280;58242;51.250;-1.118;2023-12-07T04:00:19;99806.47;;;12.36
70668;BMP280;58242;51.250;-1.118;2023-12-07T04:02:44;99807.22;;;12.36
70668;BMP280;58242;51.250;-1.118;2023-12-07T04:05:09;99804.22;;;12.38
70668;BMP280;58242;51.250;-1.118;2023-12-07T04:07:35;99796.94;;;12.38
70668;BMP280;58242;51.250;-1.118;2023-12-07T04:10:00;99789.69;;;12.39
70668;BMP280;58242;51.250;-1.118;2023-12-07T04:12:26;99797.72;;;12.39
70668;BMP280;58242;51.250;-1.118;2023-12-07T04:14:51;99788.56;;;12.40
70668;BMP280;58242;51.250;-1.118;2023-12-07T04:17:17;99783.97;;;12.40
70668;BMP280;58242;51.250;-1.118;2023-12-07T04:19:42;99783.63;;;12.42
70668;BMP280;58242;51.250;-1.118;2023-12-07T04:22:08;99765.66;;;12.42
70668;BMP280;58242;51.250;-1.118;2023-12-07T04:24:33;99771.03;;;12.42
70668;BMP280;58242;51.250;-1.118;2023-12-07T04:26:58;99754.16;;;12.42
70668;BMP280;58242;51.250;-1.118;2023-12-07T04:29:23;99764.53;;;12.43
70668;BMP280;58242;51.250;-1.118;2023-12-07T04:31:49;99758.81;;;12.45
70668;BMP280;58242;51.250;-1.118;2023-12-07T04:34:14;99751.25;;;12.47
70668;BMP280;58242;51.250;-1.118;2023-12-07T04:36:39;99753.56;;;12.48
70668;BMP280;58242;51.250;-1.118;2023-12-07T04:39:05;99746.28;;;12.48
70668;BMP280;58242;51.250;-1.118;2023-12-07T04:41:30;99746.75;;;12.50
70668;BMP280;58242;51.250;-1.118;2023-12-07T04:43:56;99730.31;;;12.52
70668;BMP280;58242;51.250;-1.118;2023-12-07T04:46:21;99728.41;;;12.52
70668;BMP280;58242;51.250;-1.118;2023-12-07T04:48:46;99727.72;;;12.55
70668;BMP280;58242;51.250;-1.118;2023-12-07T04:51:11;99717.78;;;12.56
70668;BMP280;58242;51.250;-1.118;2023-12-07T04:53:37;99720.44;;;12.56
70668;BMP280;58242;51.250;-1.118;2023-12-07T04:56:02;99708.19;;;12.55
70668;BMP280;58242;51.250;-1.118;2023-12-07T04:58:28;99719.66;;;12.55
70668;BMP280;58242;51.250;-1.118;2023-12-07T05:00:53;99702.84;;;12.55
70668;BMP280;58242;51.250;-1.118;2023-12-07T05:03:18;99710.50;;;12.56
70668;BMP280;58242;51.250;-1.118;2023-12-07T05:05:44;99712.00;;;12.54
70668;BMP280;58242;51.250;-1.118;2023-12-07T05:08:09;99710.09;;;12.54
70668;BMP280;58242;51.250;-1.118;2023-12-07T05:10:34;99706.25;;;12.55
70668;BMP280;58242;51.250;-1.118;2023-12-07T05:13:00;99701.69;;;12.56
70668;BMP280;58242;51.250;-1.118;2023-12-07T05:15:25;99697.09;;;12.56
70668;BMP280;58242;51.250;-1.118;2023-12-07T05:17:51;99688.28;;;12.56
70668;BMP280;58242;51.250;-1.118;2023-12-07T05:20:16;99688.28;;;12.56
70668;BMP280;58242;51.250;-1.118;2023-12-07T05:22:43;99680.59;;;12.54
70668;BMP280;58242;51.250;-1.118;2023-12-07T05:25:09;99687.84;;;12.54
70668;BMP280;58242;51.250;-1.118;2023-12-07T05:27:34;99684.72;;;12.52
70668;BMP280;58242;51.250;-1.118;2023-12-07T05:30:00;99681.25;;;12.51
70668;BMP280;58242;51.250;-1.118;2023-12-07T05:32:25;99692.78;;;12.52
70668;BMP280;58242;51.250;-1.118;2023-12-07T05:34:50;99680.59;;;12.54
70668;BMP280;58242;51.250;-1.118;2023-12-07T05:37:15;99680.22;;;12.56
70668;BMP280;58242;51.250;-1.118;2023-12-07T05:39:41;99679.91;;;12.57
70668;BMP280;58242;51.250;-1.118;2023-12-07T05:42:06;99671.53;;;12.59
70668;BMP280;58242;51.250;-1.118;2023-12-07T05:44:31;99673.09;;;12.60
70668;BMP280;58242;51.250;-1.118;2023-12-07T05:46:57;99651.63;;;12.60
70668;BMP280;58242;51.250;-1.118;2023-12-07T05:49:23;99653.09;;;12.57
70668;BMP280;58242;51.250;-1.118;2023-12-07T05:51:48;99655.31;;;12.55
70668;BMP280;58242;51.250;-1.118;2023-12-07T05:54:14;99658.78;;;12.56
70668;BMP280;58242;51.250;-1.118;2023-12-07T05:56:40;99652.63;;;12.55
70668;BMP280;58242;51.250;-1.118;2023-12-07T05:59:06;99657.66;;;12.57
70668;BMP280;58242;51.250;-1.118;2023-12-07T06:01:31;99642.03;;;12.59
70668;BMP280;58242;51.250;-1.118;2023-12-07T06:03:57;99647.06;;;12.60
70668;BMP280;58242;51.250;-1.118;2023-12-07T06:06:23;99635.56;;;12.60
70668;BMP280;58242;51.250;-1.118;2023-12-07T06:08:48;99643.59;;;12.60
70668;BMP280;58242;51.250;-1.118;2023-12-07T06:11:14;99642.47;;;12.61
70668;BMP280;58242;51.250;-1.118;2023-12-07T06:13:39;99645.59;;;12.63
70668;BMP280;58242;51.250;-1.118;2023-12-07T06:16:04;99636.88;;;12.66
70668;BMP280;58242;51.250;-1.118;2023-12-07T06:18:30;99647.22;;;12.67
70668;BMP280;58242;51.250;-1.118;2023-12-07T06:20:55;99647.22;;;12.67
70668;BMP280;58242;51.250;-1.118;2023-12-07T06:23:21;99649.56;;;12.68
70668;BMP280;58242;51.250;-1.118;2023-12-07T06:25:46;99643.09;;;12.69
70668;BMP280;58242;51.250;-1.118;2023-12-07T06:28:12;99636.59;;;12.70
70668;BMP280;58242;51.250;-1.118;2023-12-07T06:30:38;99634.69;;;12.71
70668;BMP280;58242;51.250;-1.118;2023-12-07T06:33:03;99641.94;;;12.70
70668;BMP280;58242;51.250;-1.118;2023-12-07T06:35:28;99635.47;;;12.71
70668;BMP280;58242;51.250;-1.118;2023-12-07T06:37:54;99639.72;;;12.72
70668;BMP280;58242;51.250;-1.118;2023-12-07T06:40:19;99635.91;;;12.73
70668;BMP280;58242;51.250;-1.118;2023-12-07T06:42:45;99645.88;;;12.73
70668;BMP280;58242;51.250;-1.118;2023-12-07T06:45:11;99639.72;;;12.72
70668;BMP280;58242;51.250;-1.118;2023-12-07T06:47:42;99641.28;;;12.73
70668;BMP280;58242;51.250;-1.118;2023-12-07T06:50:08;99626.31;;;12.72
70668;BMP280;58242;51.250;-1.118;2023-12-07T06:52:37;99616.69;;;12.71
70668;BMP280;58242;51.250;-1.118;2023-12-07T06:55:03;99623.97;;;12.71
70668;BMP280;58242;51.250;-1.118;2023-12-07T06:57:29;99612.91;;;12.72
70668;BMP280;58242;51.250;-1.118;2023-12-07T06:59:54;99626.72;;;12.74
70668;BMP280;58242;51.250;-1.118;2023-12-07T07:02:20;99630.56;;;12.73
70668;BMP280;58242;51.250;-1.118;2023-12-07T07:04:45;99629.78;;;12.73
70668;BMP280;58242;51.250;-1.118;2023-12-07T07:07:14;99623.19;;;12.70
70668;BMP280;58242;51.250;-1.118;2023-12-07T07:09:39;99624.31;;;12.69
70668;BMP280;58242;51.250;-1.118;2023-12-07T07:12:05;99623.88;;;12.67
70668;BMP280;58242;51.250;-1.118;2023-12-07T07:14:30;99603.91;;;12.65
70668;BMP280;58242;51.250;-1.118;2023-12-07T07:16:55;99610.47;;;12.67
70668;BMP280;58242;51.250;-1.118;2023-12-07T07:19:21;99604.69;;;12.66
70668;BMP280;58242;51.250;-1.118;2023-12-07T07:21:46;99597.75;;;12.65
70668;BMP280;58242;51.250;-1.118;2023-12-07T07:24:11;99601.56;;;12.64
70668;BMP280;58242;51.250;-1.118;2023-12-07T07:26:37;99598.09;;;12.63
70668;BMP280;58242;51.250;-1.118;2023-12-07T07:29:03;99590.44;;;12.62
70668;BMP280;58242;51.250;-1.118;2023-12-07T07:31:29;99589.97;;;12.60
70668;BMP280;58242;51.250;-1.118;2023-12-07T07:33:55;99574.66;;;12.60
70668;BMP280;58242;51.250;-1.118;2023-12-07T07:36:20;99573.88;;;12.60
70668;BMP280;58242;51.250;-1.118;2023-12-07T07:38:46;99572.66;;;12.57
70668;BMP280;58242;51.250;-1.118;2023-12-07T07:41:11;99570.31;;;12.56
70668;BMP280;58242;51.250;-1.118;2023-12-07T07:43:37;99581.03;;;12.56
70668;BMP280;58242;51.250;-1.118;2023-12-07T07:46:06;99587.53;;;12.55
70668;BMP280;58242;51.250;-1.118;2023-12-07T07:48:31;99580.63;;;12.54
70668;BMP280;58242;51.250;-1.118;2023-12-07T07:50:57;99571.00;;;12.53
70668;BMP280;58242;51.250;-1.118;2023-12-07T07:53:23;99572.91;;;12.52
70668;BMP280;58242;51.250;-1.118;2023-12-07T07:55:48;99571.00;;;12.53
70668;BMP280;58242;51.250;-1.118;2023-12-07T07:58:13;99544.91;;;12.50
70668;BMP280;58242;51.250;-1.118;2023-12-07T08:00:39;99566.34;;;12.50
70668;BMP280;58242;51.250;-1.118;2023-12-07T08:03:04;99571.72;;;12.50
70668;BMP280;58242;51.250;-1.118;2023-12-07T08:05:30;99567.13;;;12.50
70668;BMP280;58242;51.250;-1.118;2023-12-07T08:07:55;99564.53;;;12.54
70668;BMP280;58242;51.250;-1.118;2023-12-07T08:10:21;99565.31;;;12.54
70668;BMP280;58242;51.250;-1.118;2023-12-07T08:12:46;99537.03;;;12.57
70668;BMP280;58242;51.250;-1.118;2023-12-07T08:15:12;99529.44;;;12.59
70668;BMP280;58242;51.250;-1.118;2023-12-07T08:17:40;99527.53;;;12.59
70668;BMP280;58242;51.250;-1.118;2023-12-07T08:20:10;99526.75;;;12.59
70668;BMP280;58242;51.250;-1.118;2023-12-07T08:22:36;99525.38;;;12.49
70668;BMP280;58242;51.250;-1.118;2023-12-07T08:25:02;99518.97;;;12.54
70668;BMP280;58242;51.250;-1.118;2023-12-07T08:27:27;99520.53;;;12.55
70668;BMP280;58242;51.250;-1.118;2023-12-07T08:29:53;99523.97;;;12.55
70668;BMP280;58242;51.250;-1.118;2023-12-07T08:32:18;99511.34;;;12.56
70668;BMP280;58242;51.250;-1.118;2023-12-07T08:34:44;99506.75;;;12.56
70668;BMP280;58242;51.250;-1.118;2023-12-07T08:37:10;99516.81;;;12.59
70668;BMP280;58242;51.250;-1.118;2023-12-07T08:39:35;99502.72;;;12.62
70668;BMP280;58242;51.250;-1.118;2023-12-07T08:42:00;99507.72;;;12.64
70668;BMP280;58242;51.250;-1.118;2023-12-07T08:44:26;99492.41;;;12.64
70668;BMP280;58242;51.250;-1.118;2023-12-07T08:46:52;99487.50;;;12.66
70668;BMP280;58242;51.250;-1.118;2023-12-07T08:49:17;99477.53;;;12.66
70668;BMP280;58242;51.250;-1.118;2023-12-07T08:51:42;99471.03;;;12.67
70668;BMP280;58242;51.250;-1.118;2023-12-07T08:54:09;99462.66;;;12.69
70668;BMP280;58242;51.250;-1.118;2023-12-07T08:56:34;99463.13;;;12.74
70668;BMP280;58242;51.250;-1.118;2023-12-07T08:58:59;99458.22;;;12.76
70668;BMP280;58242;51.250;-1.118;2023-12-07T09:01:25;99452.84;;;12.76
70668;BMP280;58242;51.250;-1.118;2023-12-07T09:03:51;99460.19;;;12.79
70668;BMP280;58242;51.250;-1.118;2023-12-07T09:06:17;99451.81;;;12.81
70668;BMP280;58242;51.250;-1.118;2023-12-07T09:08:43;99451.88;;;12.84
70668;BMP280;58242;51.250;-1.118;2023-12-07T09:11:08;99445.03;;;12.86
70668;BMP280;58242;51.250;-1.118;2023-12-07T09:13:34;99435.84;;;12.87
70668;BMP280;58242;51.250;-1.118;2023-12-07T09:15:59;99431.69;;;12.90
70668;BMP280;58242;51.250;-1.118;2023-12-07T09:18:24;99419.84;;;12.91
70668;BMP280;58242;51.250;-1.118;2023-12-07T09:20:50;99414.88;;;12.93
70668;BMP280;58242;51.250;-1.118;2023-12-07T09:23:15;99418.00;;;12.95
70668;BMP280;58242;51.250;-1.118;2023-12-07T09:25:41;99421.09;;;12.97
70668;BMP280;58242;51.250;-1.118;2023-12-07T09:28:07;99415.38;;;12.98
70668;BMP280;58242;51.250;-1.118;2023-12-07T09:30:33;99408.91;;;12.99
70668;BMP280;58242;51.250;-1.118;2023-12-07T09:32:59;99408.53;;;13.00
70668;BMP280;58242;51.250;-1.118;2023-12-07T09:35:24;99405.56;;;13.05
70668;BMP280;58242;51.250;-1.118;2023-12-07T09:37:50;99406.00;;;13.07
70668;BMP280;58242;51.250;-1.118;2023-12-07T09:40:20;99407.53;;;13.08
70668;BMP280;58242;51.250;-1.118;2023-12-07T09:42:46;99406.00;;;13.07
70668;BMP280;58242;51.250;-1.118;2023-12-07T09:45:12;99411.78;;;13.09
70668;BMP280;58242;51.250;-1.118;2023-12-07T09:47:39;99432.88;;;13.11
70668;BMP280;58242;51.250;-1.118;2023-12-07T09:50:07;99431.41;;;13.13
70668;BMP280;58242;51.250;-1.118;2023-12-07T09:52:33;99436.75;;;13.13
70668;BMP280;58242;51.250;-1.118;2023-12-07T09:54:59;99417.19;;;13.13
70668;BMP280;58242;51.250;-1.118;2023-12-07T09:57:26;99411.06;;;13.12
70668;BMP280;58242;51.250;-1.118;2023-12-07T09:59:52;99409.16;;;13.13
70668;BMP280;58242;51.250;-1.118;2023-12-07T10:02:17;99419.53;;;13.14
70668;BMP280;58242;51.250;-1.118;2023-12-07T10:04:43;99413.81;;;13.16
70668;BMP280;58242;51.250;-1.118;2023-12-07T10:07:08;99407.69;;;13.15
70668;BMP280;58242;51.250;-1.118;2023-12-07T10:09:38;99395.47;;;13.17
70668;BMP280;58242;51.250;-1.118;2023-12-07T10:12:05;99379.00;;;13.19
70668;BMP280;58242;51.250;-1.118;2023-12-07T10:14:31;99369.88;;;13.23
70668;BMP280;58242;51.250;-1.118;2023-12-07T10:16:56;99367.97;;;13.24
70668;BMP280;58242;51.250;-1.118;2023-12-07T10:19:22;99356.09;;;13.25
70668;BMP280;58242;51.250;-1.118;2023-12-07T10:21:49;99360.69;;;13.24
70668;BMP280;58242;51.250;-1.118;2023-12-07T10:24:18;99351.88;;;13.24
70668;BMP280;58242;51.250;-1.118;2023-12-07T10:26:46;99346.16;;;13.25
70668;BMP280;58242;51.250;-1.118;2023-12-07T10:29:11;99341.97;;;13.28
70668;BMP280;58242;51.250;-1.118;2023-12-07T10:31:37;99345.09;;;13.30
70668;BMP280;58242;51.250;-1.118;2023-12-07T10:34:03;99362.03;;;13.34
70668;BMP280;58242;51.250;-1.118;2023-12-07T10:36:29;99369.75;;;13.38
70668;BMP280;58242;51.250;-1.118;2023-12-07T10:38:55;99367.91;;;13.42
70668;BMP280;58242;51.250;-1.118;2023-12-07T10:41:22;99354.50;;;13.42
70668;BMP280;58242;51.250;-1.118;2023-12-07T10:43:53;99357.97;;;13.43
70668;BMP280;58242;51.250;-1.118;2023-12-07T10:46:21;99337.59;;;13.42
70668;BMP280;58242;51.250;-1.118;2023-12-07T10:48:48;99354.50;;;13.42
70668;BMP280;58242;51.250;-1.118;2023-12-07T10:51:28;99351.47;;;13.44
70668;BMP280;58242;51.250;-1.118;2023-12-07T10:53:56;99354.56;;;13.46
70668;BMP280;58242;51.250;-1.118;2023-12-07T10:56:29;99326.53;;;13.43
70668;BMP280;58242;51.250;-1.118;2023-12-07T10:58:58;99329.50;;;13.38
70668;BMP280;58242;51.250;-1.118;2023-12-07T11:01:25;99327.53;;;13.35
70668;BMP280;58242;51.250;-1.118;2023-12-07T11:03:51;99302.16;;;13.30
70668;BMP280;58242;51.250;-1.118;2023-12-07T11:06:18;99300.94;;;13.27
70668;BMP280;58242;51.250;-1.118;2023-12-07T11:08:52;99309.69;;;13.24
70668;BMP280;58242;51.250;-1.118;2023-12-07T11:14:10;99292.72;;;13.17
70668;BMP280;58242;51.250;-1.118;2023-12-07T11:16:43;99291.94;;;13.17
70668;BMP280;58242;51.250;-1.118;2023-12-07T11:22:04;99265.75;;;13.10
70668;BMP280;58242;51.250;-1.118;2023-12-07T11:24:29;99255.03;;;13.10
70668;BMP280;58242;51.250;-1.118;2023-12-07T11:26:56;99246.97;;;13.10
70668;BMP280;58242;51.250;-1.118;2023-12-07T11:29:25;99243.91;;;13.12
70668;BMP280;58242;51.250;-1.118;2023-12-07T11:31:51;99237.38;;;13.09
70668;BMP280;58242;51.250;-1.118;2023-12-07T11:34:36;99236.53;;;13.05
70668;BMP280;58242;51.250;-1.118;2023-12-07T11:37:02;99246.88;;;13.03
70668;BMP280;58242;51.250;-1.118;2023-12-07T11:39:29;99250.69;;;13.02
70668;BMP280;58242;51.250;-1.118;2023-12-07T11:41:55;99225.34;;;13.00
70668;BMP280;58242;51.250;-1.118;2023-12-07T11:44:50;99231.00;;;12.95
70668;BMP280;58242;51.250;-1.118;2023-12-07T11:47:16;99229.09;;;12.96
70668;BMP280;58242;51.250;-1.118;2023-12-07T11:49:43;99218.78;;;12.98
70668;BMP280;58242;51.250;-1.118;2023-12-07T11:52:16;99218.78;;;12.98
70668;BMP280;58242;51.250;-1.118;2023-12-07T11:54:49;99220.31;;;12.99
70668;BMP280;58242;51.250;-1.118;2023-12-07T11:57:16;99218.06;;;13.00
70668;BMP280;58242;51.250;-1.118;2023-12-07T11:59:44;99208.88;;;13.01
70668;BMP280;58242;51.250;-1.118;2023-12-07T12:02:12;99207.75;;;13.02
70668;BMP280;58242;51.250;-1.118;2023-12-07T12:04:38;99200.09;;;13.04
70668;BMP280;58242;51.250;-1.118;2023-12-07T12:07:04;99188.63;;;13.04
70668;BMP280;58242;51.250;-1.118;2023-12-07T12:09:29;99173.28;;;13.04
70668;BMP280;58242;51.250;-1.118;2023-12-07T12:11:56;99178.28;;;13.06
70668;BMP280;58242;51.250;-1.118;2023-12-07T12:14:25;99183.25;;;13.04
70668;BMP280;58242;51.250;-1.118;2023-12-07T12:16:51;99185.94;;;13.04
70668;BMP280;58242;51.250;-1.118;2023-12-07T12:19:16;99165.22;;;13.04
70668;BMP280;58242;51.250;-1.118;2023-12-07T12:21:42;99171.38;;;13.05
70668;BMP280;58242;51.250;-1.118;2023-12-07T12:24:09;99165.22;;;13.04
70668;BMP280;58242;51.250;-1.118;2023-12-07T12:26:37;99159.81;;;13.01
70668;BMP280;58242;51.250;-1.118;2023-12-07T12:29:04;99156.72;;;12.99
70668;BMP280;58242;51.250;-1.118;2023-12-07T12:31:30;99151.31;;;12.96
70668;BMP280;58242;51.250;-1.118;2023-12-07T12:33:55;99148.19;;;12.94
70668;BMP280;58242;51.250;-1.118;2023-12-07T12:36:21;99146.66;;;12.93
70668;BMP280;58242;51.250;-1.118;2023-12-07T12:38:49;99133.19;;;12.89
70668;BMP280;58242;51.250;-1.118;2023-12-07T12:41:18;99103.22;;;12.84
70668;BMP280;58242;51.250;-1.118;2023-12-07T12:43:44;99106.94;;;12.76
70668;BMP280;58242;51.250;-1.118;2023-12-07T12:46:10;99098.06;;;12.72
70668;BMP280;58242;51.250;-1.118;2023-12-07T12:48:36;99099.19;;;12.71
70668;BMP280;58242;51.250;-1.118;2023-12-07T12:51:12;99093.41;;;12.69
70668;BMP280;58242;51.250;-1.118;2023-12-07T12:53:43;99083.78;;;12.65
70668;BMP280;58242;51.250;-1.118;2023-12-07T12:56:10;99089.47;;;12.64
70668;BMP280;58242;51.250;-1.118;2023-12-07T12:58:36;99069.88;;;12.60
70668;BMP280;58242;51.250;-1.118;2023-12-07T13:01:02;99083.28;;;12.60
70668;BMP280;58242;51.250;-1.118;2023-12-07T13:03:28;99073.25;;;12.57
70668;BMP280;58242;51.250;-1.118;2023-12-07T13:05:54;99069.44;;;12.58
70668;BMP280;58242;51.250;-1.118;2023-12-07T13:08:20;99064.94;;;12.62
70668;BMP280;58242;51.250;-1.118;2023-12-07T13:10:45;99060.38;;;12.62
70668;BMP280;58242;51.250;-1.118;2023-12-07T13:13:10;99072.22;;;12.61
70668;BMP280;58242;51.250;-1.118;2023-12-07T13:15:36;99064.09;;;12.58
70668;BMP280;58242;51.250;-1.118;2023-12-07T13:18:02;99062.53;;;12.57
70668;BMP280;58242;51.250;-1.118;2023-12-07T13:20:30;99047.94;;;12.54
70668;BMP280;58242;51.250;-1.118;2023-12-07T13:22:55;99048.31;;;12.53
70668;BMP280;58242;51.250;-1.118;2023-12-07T13:25:21;99042.53;;;12.51
70668;BMP280;58242;51.250;-1.118;2023-12-07T13:27:46;99024.47;;;12.48
70668;BMP280;58242;51.250;-1.118;2023-12-07T13:30:12;99024.84;;;12.47
70668;BMP280;58242;51.250;-1.118;2023-12-07T13:32:37;99014.13;;;12.47
70668;BMP280;58242;51.250;-1.118;2023-12-07T13:35:04;98999.56;;;12.48
70668;BMP280;58242;51.250;-1.118;2023-12-07T13:37:29;99004.19;;;12.47
70668;BMP280;58242;51.250;-1.118;2023-12-07T13:39:55;98992.31;;;12.48
70668;BMP280;58242;51.250;-1.118;2023-12-07T13:42:25;98985.09;;;12.52
70668;BMP280;58242;51.250;-1.118;2023-12-07T13:44:53;98992.44;;;12.55
70668;BMP280;58242;51.250;-1.118;2023-12-07T13:47:18;98978.66;;;12.56
70668;BMP280;58242;51.250;-1.118;2023-12-07T13:49:45;98969.44;;;12.54
70668;BMP280;58242;51.250;-1.118;2023-12-07T13:52:11;98979.75;;;12.52
70668;BMP280;58242;51.250;-1.118;2023-12-07T13:54:36;98975.53;;;12.51
70668;BMP280;58242;51.250;-1.118;2023-12-07T13:57:01;98974.38;;;12.52
70668;BMP280;58242;51.250;-1.118;2023-12-07T13:59:28;98961.34;;;12.50
70668;BMP280;58242;51.250;-1.118;2023-12-07T14:01:54;98969.41;;;12.50